sensor_id;sensor_type;location;lat;lon;timestamp;P1;durP1;ratioP1;P2;durP2;ratioP2
81894;SDS011;76432;45.642;13.758;2024-02-16T00:02:19;13.15;;;11.95;;
81894;SDS011;76432;45.642;13.758;2024-02-16T00:05:04;13.20;;;11.82;;
81894;SDS011;76432;45.642;13.758;2024-02-16T00:07:51;13.10;;;11.82;;
81894;SDS011;76432;45.642;13.758;2024-02-16T00:10:35;12.88;;;11.52;;
81894;SDS011;76432;45.642;13.758;2024-02-16T00:13:20;12.00;;;10.82;;
81894;SDS011;76432;45.642;13.758;2024-02-16T00:16:04;12.77;;;11.57;;
81894;SDS011;76432;45.642;13.758;2024-02-16T00:18:49;11.85;;;10.75;;
81894;SDS011;76432;45.642;13.758;2024-02-16T00:21:33;12.52;;;11.38;;
81894;SDS011;76432;45.642;13.758;2024-02-16T00:24:18;13.10;;;11.70;;
81894;SDS011;76432;45.642;13.758;2024-02-16T00:27:03;12.27;;;11.07;;
81894;SDS011;76432;45.642;13.758;2024-02-16T00:29:49;13.98;;;11.23;;
81894;SDS011;76432;45.642;13.758;2024-02-16T00:32:33;11.52;;;10.40;;
81894;SDS011;76432;45.642;13.758;2024-02-16T00:35:18;12.38;;;11.27;;
81894;SDS011;76432;45.642;13.758;2024-02-16T00:38:03;13.85;;;12.43;;
81894;SDS011;76432;45.642;13.758;2024-02-16T00:40:47;12.40;;;11.20;;
81894;SDS011;76432;45.642;13.758;2024-02-16T00:43:32;11.80;;;10.68;;
81894;SDS011;76432;45.642;13.758;2024-02-16T00:46:17;12.30;;;11.10;;
81894;SDS011;76432;45.642;13.758;2024-02-16T00:49:01;13.27;;;11.98;;
81894;SDS011;76432;45.642;13.758;2024-02-16T00:51:47;12.02;;;10.82;;
81894;SDS011;76432;45.642;13.758;2024-02-16T00:54:32;14.13;;;11.85;;
81894;SDS011;76432;45.642;13.758;2024-02-16T00:57:16;13.40;;;12.00;;
81894;SDS011;76432;45.642;13.758;2024-02-16T01:00:01;14.32;;;12.13;;
81894;SDS011;76432;45.642;13.758;2024-02-16T01:02:47;13.40;;;12.05;;
81894;SDS011;76432;45.642;13.758;2024-02-16T01:05:32;13.52;;;12.13;;
81894;SDS011;76432;45.642;13.758;2024-02-16T01:08:16;14.57;;;12.65;;
81894;SDS011;76432;45.642;13.758;2024-02-16T01:11:01;13.50;;;12.10;;
81894;SDS011;76432;45.642;13.758;2024-02-16T01:13:47;13.35;;;12.05;;
81894;SDS011;76432;45.642;13.758;2024-02-16T01:16:32;13.27;;;11.88;;
81894;SDS011;76432;45.642;13.758;2024-02-16T01:19:16;13.25;;;11.90;;
81894;SDS011;76432;45.642;13.758;2024-02-16T01:22:01;14.23;;;12.82;;
81894;SDS011;76432;45.642;13.758;2024-02-16T01:24:47;12.70;;;11.40;;
81894;SDS011;76432;45.642;13.758;2024-02-16T01:27:32;13.23;;;11.73;;
81894;SDS011;76432;45.642;13.758;2024-02-16T01:30:16;13.93;;;12.52;;
81894;SDS011;76432;45.642;13.758;2024-02-16T01:33:02;13.02;;;11.63;;
81894;SDS011;76432;45.642;13.758;2024-02-16T01:35:46;12.77;;;11.52;;
81894;SDS011;76432;45.642;13.758;2024-02-16T01:38:31;12.75;;;11.45;;
81894;SDS011;76432;45.642;13.758;2024-02-16T01:41:16;12.82;;;11.63;;
81894;SDS011;76432;45.642;13.758;2024-02-16T01:44:00;12.63;;;11.32;;
81894;SDS011;76432;45.642;13.758;2024-02-16T01:46:45;13.43;;;12.02;;
81894;SDS011;76432;45.642;13.758;2024-02-16T01:49:29;11.48;;;10.38;;
81894;SDS011;76432;45.642;13.758;2024-02-16T01:52:14;12.20;;;11.00;;
81894;SDS011;76432;45.642;13.758;2024-02-16T01:54:59;14.23;;;12.30;;
81894;SDS011;76432;45.642;13.758;2024-02-16T01:57:48;11.88;;;10.77;;
81894;SDS011;76432;45.642;13.758;2024-02-16T02:00:32;11.90;;;10.70;;
81894;SDS011;76432;45.642;13.758;2024-02-16T02:03:17;12.02;;;10.82;;
81894;SDS011;76432;45.642;13.758;2024-02-16T02:06:01;11.82;;;10.60;;
81894;SDS011;76432;45.642;13.758;2024-02-16T02:08:47;12.10;;;10.85;;
81894;SDS011;76432;45.642;13.758;2024-02-16T02:11:32;12.00;;;10.57;;
81894;SDS011;76432;45.642;13.758;2024-02-16T02:14:17;12.05;;;10.68;;
81894;SDS011;76432;45.642;13.758;2024-02-16T02:17:01;12.02;;;10.77;;
81894;SDS011;76432;45.642;13.758;2024-02-16T02:19:46;12.05;;;10.77;;
81894;SDS011;76432;45.642;13.758;2024-02-16T02:22:33;12.15;;;10.85;;
81894;SDS011;76432;45.642;13.758;2024-02-16T02:25:17;11.35;;;10.15;;
81894;SDS011;76432;45.642;13.758;2024-02-16T02:28:04;11.93;;;10.80;;
81894;SDS011;76432;45.642;13.758;2024-02-16T02:30:49;11.50;;;10.25;;
81894;SDS011;76432;45.642;13.758;2024-02-16T02:33:34;11.20;;;10.10;;
81894;SDS011;76432;45.642;13.758;2024-02-16T02:36:19;11.63;;;10.48;;
81894;SDS011;76432;45.642;13.758;2024-02-16T02:39:03;10.65;;;9.57;;
81894;SDS011;76432;45.642;13.758;2024-02-16T02:41:48;11.10;;;9.90;;
81894;SDS011;76432;45.642;13.758;2024-02-16T02:44:32;11.88;;;10.68;;
81894;SDS011;76432;45.642;13.758;2024-02-16T02:47:17;11.60;;;10.45;;
81894;SDS011;76432;45.642;13.758;2024-02-16T02:50:02;11.48;;;10.38;;
81894;SDS011;76432;45.642;13.758;2024-02-16T02:52:48;10.35;;;9.27;;
81894;SDS011;76432;45.642;13.758;2024-02-16T02:55:33;10.98;;;9.90;;
81894;SDS011;76432;45.642;13.758;2024-02-16T02:58:18;11.02;;;10.02;;
81894;SDS011;76432;45.642;13.758;2024-02-16T03:01:03;9.73;;;8.77;;
81894;SDS011;76432;45.642;13.758;2024-02-16T03:03:48;10.35;;;9.35;;
81894;SDS011;76432;45.642;13.758;2024-02-16T03:06:33;10.38;;;9.27;;
81894;SDS011;76432;45.642;13.758;2024-02-16T03:09:17;10.45;;;9.45;;
81894;SDS011;76432;45.642;13.758;2024-02-16T03:12:03;10.63;;;9.63;;
81894;SDS011;76432;45.642;13.758;2024-02-16T03:14:47;10.82;;;9.00;;
81894;SDS011;76432;45.642;13.758;2024-02-16T03:17:32;9.45;;;8.45;;
81894;SDS011;76432;45.642;13.758;2024-02-16T03:20:16;10.40;;;9.50;;
81894;SDS011;76432;45.642;13.758;2024-02-16T03:23:01;8.93;;;8.10;;
81894;SDS011;76432;45.642;13.758;2024-02-16T03:25:48;9.73;;;8.82;;
81894;SDS011;76432;45.642;13.758;2024-02-16T03:28:33;10.15;;;9.15;;
81894;SDS011;76432;45.642;13.758;2024-02-16T03:31:21;9.02;;;8.10;;
81894;SDS011;76432;45.642;13.758;2024-02-16T03:34:06;9.02;;;8.13;;
81894;SDS011;76432;45.642;13.758;2024-02-16T03:36:51;9.63;;;8.65;;
81894;SDS011;76432;45.642;13.758;2024-02-16T03:39:36;9.38;;;8.35;;
81894;SDS011;76432;45.642;13.758;2024-02-16T03:42:20;9.60;;;8.70;;
81894;SDS011;76432;45.642;13.758;2024-02-16T03:45:05;9.70;;;8.70;;
81894;SDS011;76432;45.642;13.758;2024-02-16T03:47:50;8.85;;;7.95;;
81894;SDS011;76432;45.642;13.758;2024-02-16T03:50:37;8.93;;;8.13;;
81894;SDS011;76432;45.642;13.758;2024-02-16T03:53:22;9.63;;;8.63;;
81894;SDS011;76432;45.642;13.758;2024-02-16T03:56:07;9.35;;;8.55;;
81894;SDS011;76432;45.642;13.758;2024-02-16T03:58:51;7.90;;;7.20;;
81894;SDS011;76432;45.642;13.758;2024-02-16T04:01:36;9.88;;;8.85;;
81894;SDS011;76432;45.642;13.758;2024-02-16T04:04:20;8.98;;;8.18;;
81894;SDS011;76432;45.642;13.758;2024-02-16T04:07:05;8.82;;;7.93;;
81894;SDS011;76432;45.642;13.758;2024-02-16T04:09:52;9.13;;;8.20;;
81894;SDS011;76432;45.642;13.758;2024-02-16T04:12:37;9.38;;;8.43;;
81894;SDS011;76432;45.642;13.758;2024-02-16T04:15:21;8.90;;;8.07;;
81894;SDS011;76432;45.642;13.758;2024-02-16T04:18:06;8.02;;;7.32;;
81894;SDS011;76432;45.642;13.758;2024-02-16T04:20:50;9.65;;;8.52;;
81894;SDS011;76432;45.642;13.758;2024-02-16T04:23:35;8.85;;;7.95;;
81894;SDS011;76432;45.642;13.758;2024-02-16T04:26:20;8.13;;;7.43;;
81894;SDS011;76432;45.642;13.758;2024-02-16T04:29:04;9.45;;;8.55;;
81894;SDS011;76432;45.642;13.758;2024-02-16T04:31:49;8.63;;;7.72;;
81894;SDS011;76432;45.642;13.758;2024-02-16T04:34:33;7.95;;;7.18;;
81894;SDS011;76432;45.642;13.758;2024-02-16T04:37:18;8.90;;;8.00;;
81894;SDS011;76432;45.642;13.758;2024-02-16T04:40:03;9.02;;;8.13;;
81894;SDS011;76432;45.642;13.758;2024-02-16T04:42:49;8.80;;;8.00;;
81894;SDS011;76432;45.642;13.758;2024-02-16T04:45:35;9.25;;;8.40;;
81894;SDS011;76432;45.642;13.758;2024-02-16T04:48:19;9.10;;;8.30;;
81894;SDS011;76432;45.642;13.758;2024-02-16T04:51:05;9.02;;;8.23;;
81894;SDS011;76432;45.642;13.758;2024-02-16T04:53:49;9.20;;;8.30;;
81894;SDS011;76432;45.642;13.758;2024-02-16T04:56:34;10.10;;;9.15;;
81894;SDS011;76432;45.642;13.758;2024-02-16T04:59:19;9.18;;;8.20;;
81894;SDS011;76432;45.642;13.758;2024-02-16T05:02:04;9.60;;;8.70;;
81894;SDS011;76432;45.642;13.758;2024-02-16T05:04:50;11.23;;;8.95;;
81894;SDS011;76432;45.642;13.758;2024-02-16T05:07:35;8.75;;;7.93;;
81894;SDS011;76432;45.642;13.758;2024-02-16T05:10:20;11.75;;;9.75;;
81894;SDS011;76432;45.642;13.758;2024-02-16T05:13:05;9.43;;;8.52;;
81894;SDS011;76432;45.642;13.758;2024-02-16T05:15:49;10.80;;;9.35;;
81894;SDS011;76432;45.642;13.758;2024-02-16T05:18:34;10.73;;;9.73;;
81894;SDS011;76432;45.642;13.758;2024-02-16T05:21:18;12.60;;;11.32;;
81894;SDS011;76432;45.642;13.758;2024-02-16T05:24:03;13.15;;;11.75;;
81894;SDS011;76432;45.642;13.758;2024-02-16T05:26:48;14.70;;;12.55;;
81894;SDS011;76432;45.642;13.758;2024-02-16T05:29:35;12.55;;;11.40;;
81894;SDS011;76432;45.642;13.758;2024-02-16T05:32:19;13.55;;;12.02;;
81894;SDS011;76432;45.642;13.758;2024-02-16T05:35:04;14.75;;;13.35;;
81894;SDS011;76432;45.642;13.758;2024-02-16T05:37:56;14.18;;;12.82;;
81894;SDS011;76432;45.642;13.758;2024-02-16T05:40:41;14.23;;;12.82;;
81894;SDS011;76432;45.642;13.758;2024-02-16T05:43:37;15.18;;;13.57;;
81894;SDS011;76432;45.642;13.758;2024-02-16T05:46:22;15.50;;;13.80;;
81894;SDS011;76432;45.642;13.758;2024-02-16T05:49:07;16.73;;;15.13;;
81894;SDS011;76432;45.642;13.758;2024-02-16T05:51:54;16.30;;;14.60;;
81894;SDS011;76432;45.642;13.758;2024-02-16T05:54:57;15.18;;;13.57;;
81894;SDS011;76432;45.642;13.758;2024-02-16T05:57:42;14.80;;;13.30;;
81894;SDS011;76432;45.642;13.758;2024-02-16T06:00:26;15.40;;;13.85;;
81894;SDS011;76432;45.642;13.758;2024-02-16T06:03:11;15.57;;;14.07;;
81894;SDS011;76432;45.642;13.758;2024-02-16T06:05:55;14.55;;;13.13;;
81894;SDS011;76432;45.642;13.758;2024-02-16T06:08:40;14.70;;;13.30;;
81894;SDS011;76432;45.642;13.758;2024-02-16T06:11:25;15.38;;;13.80;;
81894;SDS011;76432;45.642;13.758;2024-02-16T06:14:10;13.07;;;11.77;;
81894;SDS011;76432;45.642;13.758;2024-02-16T06:16:54;13.57;;;12.18;;
81894;SDS011;76432;45.642;13.758;2024-02-16T06:19:39;13.57;;;11.75;;
81894;SDS011;76432;45.642;13.758;2024-02-16T06:22:27;14.32;;;12.82;;
81894;SDS011;76432;45.642;13.758;2024-02-16T06:25:12;12.98;;;11.65;;
81894;SDS011;76432;45.642;13.758;2024-02-16T06:27:56;12.27;;;11.15;;
81894;SDS011;76432;45.642;13.758;2024-02-16T06:30:41;13.00;;;11.73;;
81894;SDS011;76432;45.642;13.758;2024-02-16T06:33:25;13.52;;;12.13;;
81894;SDS011;76432;45.642;13.758;2024-02-16T06:36:10;12.60;;;11.35;;
81894;SDS011;76432;45.642;13.758;2024-02-16T06:38:54;13.05;;;11.85;;
81894;SDS011;76432;45.642;13.758;2024-02-16T06:41:39;13.77;;;12.38;;
81894;SDS011;76432;45.642;13.758;2024-02-16T06:44:24;11.93;;;10.73;;
81894;SDS011;76432;45.642;13.758;2024-02-16T06:47:08;13.30;;;11.90;;
81894;SDS011;76432;45.642;13.758;2024-02-16T06:49:53;12.27;;;11.13;;
81894;SDS011;76432;45.642;13.758;2024-02-16T06:52:37;11.85;;;10.63;;
81894;SDS011;76432;45.642;13.758;2024-02-16T06:55:22;11.23;;;10.13;;
81894;SDS011;76432;45.642;13.758;2024-02-16T06:58:06;11.60;;;10.40;;
81894;SDS011;76432;45.642;13.758;2024-02-16T07:00:51;11.27;;;10.18;;
81894;SDS011;76432;45.642;13.758;2024-02-16T07:03:35;11.77;;;10.57;;
81894;SDS011;76432;45.642;13.758;2024-02-16T07:06:20;11.23;;;10.18;;
81894;SDS011;76432;45.642;13.758;2024-02-16T07:09:05;11.00;;;9.90;;
81894;SDS011;76432;45.642;13.758;2024-02-16T07:11:49;11.95;;;10.77;;
81894;SDS011;76432;45.642;13.758;2024-02-16T07:14:34;11.80;;;10.70;;
81894;SDS011;76432;45.642;13.758;2024-02-16T07:17:19;10.65;;;9.65;;
81894;SDS011;76432;45.642;13.758;2024-02-16T07:20:04;10.88;;;9.77;;
81894;SDS011;76432;45.642;13.758;2024-02-16T07:22:48;14.38;;;10.75;;
81894;SDS011;76432;45.642;13.758;2024-02-16T07:25:35;11.48;;;10.23;;
81894;SDS011;76432;45.642;13.758;2024-02-16T07:28:19;11.13;;;10.02;;
81894;SDS011;76432;45.642;13.758;2024-02-16T07:31:04;10.55;;;9.45;;
81894;SDS011;76432;45.642;13.758;2024-02-16T07:33:49;11.25;;;9.45;;
81894;SDS011;76432;45.642;13.758;2024-02-16T07:36:34;15.77;;;10.45;;
81894;SDS011;76432;45.642;13.758;2024-02-16T07:39:20;12.95;;;9.30;;
81894;SDS011;76432;45.642;13.758;2024-02-16T07:42:07;13.30;;;10.15;;
81894;SDS011;76432;45.642;13.758;2024-02-16T07:44:56;12.93;;;9.05;;
81894;SDS011;76432;45.642;13.758;2024-02-16T07:47:41;12.85;;;8.90;;
81894;SDS011;76432;45.642;13.758;2024-02-16T07:50:25;15.32;;;8.82;;
81894;SDS011;76432;45.642;13.758;2024-02-16T07:53:10;15.20;;;8.85;;
81894;SDS011;76432;45.642;13.758;2024-02-16T07:55:55;10.35;;;9.35;;
81894;SDS011;76432;45.642;13.758;2024-02-16T07:58:43;9.00;;;8.10;;
81894;SDS011;76432;45.642;13.758;2024-02-16T08:01:27;11.48;;;8.23;;
81894;SDS011;76432;45.642;13.758;2024-02-16T08:04:12;11.13;;;8.07;;
81894;SDS011;76432;45.642;13.758;2024-02-16T08:06:57;11.52;;;9.45;;
81894;SDS011;76432;45.642;13.758;2024-02-16T08:09:45;12.40;;;9.15;;
81894;SDS011;76432;45.642;13.758;2024-02-16T08:12:30;11.13;;;9.60;;
81894;SDS011;76432;45.642;13.758;2024-02-16T08:15:16;12.77;;;10.50;;
81894;SDS011;76432;45.642;13.758;2024-02-16T08:18:06;10.88;;;9.73;;
81894;SDS011;76432;45.642;13.758;2024-02-16T08:20:51;11.65;;;10.55;;
81894;SDS011;76432;45.642;13.758;2024-02-16T08:23:35;12.75;;;10.13;;
81894;SDS011;76432;45.642;13.758;2024-02-16T08:26:21;12.52;;;10.13;;
81894;SDS011;76432;45.642;13.758;2024-02-16T08:29:06;12.73;;;11.25;;
81894;SDS011;76432;45.642;13.758;2024-02-16T08:31:50;9.68;;;8.73;;
81894;SDS011;76432;45.642;13.758;2024-02-16T08:34:35;10.07;;;8.73;;
81894;SDS011;76432;45.642;13.758;2024-02-16T08:37:23;10.35;;;8.90;;
81894;SDS011;76432;45.642;13.758;2024-02-16T08:40:07;12.27;;;9.75;;
81894;SDS011;76432;45.642;13.758;2024-02-16T08:42:58;10.75;;;9.52;;
81894;SDS011;76432;45.642;13.758;2024-02-16T08:45:45;10.15;;;9.15;;
81894;SDS011;76432;45.642;13.758;2024-02-16T08:48:29;10.18;;;9.25;;
81894;SDS011;76432;45.642;13.758;2024-02-16T08:51:14;10.70;;;9.57;;
81894;SDS011;76432;45.642;13.758;2024-02-16T08:53:59;9.77;;;8.80;;
81894;SDS011;76432;45.642;13.758;2024-02-16T08:56:47;12.00;;;9.60;;
81894;SDS011;76432;45.642;13.758;2024-02-16T08:59:32;10.57;;;9.40;;
81894;SDS011;76432;45.642;13.758;2024-02-16T09:02:18;10.50;;;9.55;;
81894;SDS011;76432;45.642;13.758;2024-02-16T09:05:03;10.32;;;9.32;;
81894;SDS011;76432;45.642;13.758;2024-02-16T09:07:48;9.73;;;8.73;;
81894;SDS011;76432;45.642;13.758;2024-02-16T09:10:32;9.82;;;8.93;;
81894;SDS011;76432;45.642;13.758;2024-02-16T09:13:18;8.75;;;7.95;;
81894;SDS011;76432;45.642;13.758;2024-02-16T09:16:02;9.60;;;8.70;;
81894;SDS011;76432;45.642;13.758;2024-02-16T09:18:47;9.65;;;8.57;;
81894;SDS011;76432;45.642;13.758;2024-02-16T09:21:34;10.75;;;8.90;;
81894;SDS011;76432;45.642;13.758;2024-02-16T09:24:18;9.27;;;8.48;;
81894;SDS011;76432;45.642;13.758;2024-02-16T09:27:03;9.73;;;8.80;;
81894;SDS011;76432;45.642;13.758;2024-02-16T09:29:48;9.40;;;8.07;;
81894;SDS011;76432;45.642;13.758;2024-02-16T09:32:33;8.77;;;8.07;;
81894;SDS011;76432;45.642;13.758;2024-02-16T09:35:17;9.30;;;8.40;;
81894;SDS011;76432;45.642;13.758;2024-02-16T09:38:02;10.75;;;9.27;;
81894;SDS011;76432;45.642;13.758;2024-02-16T09:40:47;9.20;;;8.30;;
81894;SDS011;76432;45.642;13.758;2024-02-16T09:43:31;8.80;;;7.90;;
81894;SDS011;76432;45.642;13.758;2024-02-16T09:46:15;9.18;;;8.27;;
81894;SDS011;76432;45.642;13.758;2024-02-16T09:49:01;8.63;;;7.85;;
81894;SDS011;76432;45.642;13.758;2024-02-16T09:51:47;8.90;;;8.10;;
81894;SDS011;76432;45.642;13.758;2024-02-16T09:54:32;8.45;;;7.68;;
81894;SDS011;76432;45.642;13.758;2024-02-16T09:57:19;8.32;;;7.53;;
81894;SDS011;76432;45.642;13.758;2024-02-16T10:00:04;8.07;;;7.28;;
81894;SDS011;76432;45.642;13.758;2024-02-16T10:02:56;8.55;;;7.75;;
81894;SDS011;76432;45.642;13.758;2024-02-16T10:05:40;8.75;;;7.85;;
81894;SDS011;76432;45.642;13.758;2024-02-16T10:08:25;8.25;;;7.45;;
81894;SDS011;76432;45.642;13.758;2024-02-16T10:11:10;8.23;;;7.43;;
81894;SDS011;76432;45.642;13.758;2024-02-16T10:16:42;8.10;;;7.30;;
81894;SDS011;76432;45.642;13.758;2024-02-16T10:19:27;8.52;;;7.72;;
81894;SDS011;76432;45.642;13.758;2024-02-16T10:22:12;7.93;;;7.20;;
81894;SDS011;76432;45.642;13.758;2024-02-16T10:25:06;7.65;;;6.93;;
81894;SDS011;76432;45.642;13.758;2024-02-16T10:27:56;8.00;;;7.32;;
81894;SDS011;76432;45.642;13.758;2024-02-16T10:30:43;8.43;;;7.38;;
81894;SDS011;76432;45.642;13.758;2024-02-16T10:33:28;7.32;;;6.65;;
81894;SDS011;76432;45.642;13.758;2024-02-16T10:36:15;7.35;;;6.75;;
81894;SDS011;76432;45.642;13.758;2024-02-16T10:39:00;7.32;;;6.72;;
81894;SDS011;76432;45.642;13.758;2024-02-16T10:41:49;7.30;;;6.60;;
81894;SDS011;76432;45.642;13.758;2024-02-16T10:44:35;7.53;;;6.82;;
81894;SDS011;76432;45.642;13.758;2024-02-16T10:47:20;7.75;;;6.95;;
81894;SDS011;76432;45.642;13.758;2024-02-16T10:50:04;7.20;;;6.60;;
81894;SDS011;76432;45.642;13.758;2024-02-16T10:52:50;7.05;;;6.45;;
81894;SDS011;76432;45.642;13.758;2024-02-16T10:55:37;7.60;;;6.90;;
81894;SDS011;76432;45.642;13.758;2024-02-16T10:58:21;7.25;;;6.65;;
81894;SDS011;76432;45.642;13.758;2024-02-16T11:01:09;7.25;;;6.55;;
81894;SDS011;76432;45.642;13.758;2024-02-16T11:04:00;6.20;;;5.57;;
81894;SDS011;76432;45.642;13.758;2024-02-16T11:06:54;7.20;;;6.50;;
81894;SDS011;76432;45.642;13.758;2024-02-16T11:09:43;7.82;;;7.13;;
81894;SDS011;76432;45.642;13.758;2024-02-16T11:12:32;7.07;;;6.47;;
81894;SDS011;76432;45.642;13.758;2024-02-16T11:15:26;6.22;;;5.68;;
81894;SDS011;76432;45.642;13.758;2024-02-16T11:18:12;6.25;;;5.75;;
81894;SDS011;76432;45.642;13.758;2024-02-16T11:21:01;6.47;;;5.88;;
81894;SDS011;76432;45.642;13.758;2024-02-16T11:23:46;5.93;;;5.43;;
81894;SDS011;76432;45.642;13.758;2024-02-16T11:26:30;6.07;;;5.57;;
81894;SDS011;76432;45.642;13.758;2024-02-16T11:29:15;6.60;;;6.00;;
81894;SDS011;76432;45.642;13.758;2024-02-16T11:32:00;6.88;;;6.30;;
81894;SDS011;76432;45.642;13.758;2024-02-16T11:34:46;6.07;;;5.57;;
81894;SDS011;76432;45.642;13.758;2024-02-16T11:37:31;6.63;;;6.13;;
81894;SDS011;76432;45.642;13.758;2024-02-16T11:40:16;7.65;;;5.32;;
81894;SDS011;76432;45.642;13.758;2024-02-16T11:43:00;6.22;;;4.95;;
81894;SDS011;76432;45.642;13.758;2024-02-16T11:45:46;5.88;;;5.28;;
81894;SDS011;76432;45.642;13.758;2024-02-16T11:48:31;6.20;;;5.63;;
81894;SDS011;76432;45.642;13.758;2024-02-16T11:51:15;5.22;;;4.72;;
81894;SDS011;76432;45.642;13.758;2024-02-16T11:54:00;5.95;;;5.45;;
81894;SDS011;76432;45.642;13.758;2024-02-16T11:56:45;6.18;;;5.68;;
81894;SDS011;76432;45.642;13.758;2024-02-16T11:59:30;5.60;;;5.15;;
81894;SDS011;76432;45.642;13.758;2024-02-16T12:02:19;7.32;;;5.88;;
81894;SDS011;76432;45.642;13.758;2024-02-16T12:05:05;5.97;;;5.40;;
81894;SDS011;76432;45.642;13.758;2024-02-16T12:07:50;6.13;;;5.60;;
81894;SDS011;76432;45.642;13.758;2024-02-16T12:10:35;6.75;;;6.15;;
81894;SDS011;76432;45.642;13.758;2024-02-16T12:13:20;6.35;;;5.65;;
81894;SDS011;76432;45.642;13.758;2024-02-16T12:16:04;6.13;;;5.68;;
81894;SDS011;76432;45.642;13.758;2024-02-16T12:18:50;6.35;;;5.50;;
81894;SDS011;76432;45.642;13.758;2024-02-16T12:21:35;6.55;;;5.97;;
81894;SDS011;76432;45.642;13.758;2024-02-16T12:24:20;6.78;;;5.65;;
81894;SDS011;76432;45.642;13.758;2024-02-16T12:27:05;6.80;;;6.25;;
81894;SDS011;76432;45.642;13.758;2024-02-16T12:29:49;6.15;;;5.65;;
81894;SDS011;76432;45.642;13.758;2024-02-16T12:32:34;7.88;;;6.38;;
81894;SDS011;76432;45.642;13.758;2024-02-16T12:35:18;6.38;;;5.88;;
81894;SDS011;76432;45.642;13.758;2024-02-16T12:38:03;6.25;;;5.65;;
81894;SDS011;76432;45.642;13.758;2024-02-16T12:40:48;6.97;;;5.50;;
81894;SDS011;76432;45.642;13.758;2024-02-16T12:43:33;6.38;;;5.78;;
81894;SDS011;76432;45.642;13.758;2024-02-16T12:46:19;8.48;;;5.88;;
81894;SDS011;76432;45.642;13.758;2024-02-16T12:49:03;8.40;;;6.18;;
81894;SDS011;76432;45.642;13.758;2024-02-16T12:51:51;10.27;;;6.60;;
81894;SDS011;76432;45.642;13.758;2024-02-16T12:54:35;10.05;;;7.20;;
81894;SDS011;76432;45.642;13.758;2024-02-16T12:57:20;6.22;;;5.65;;
81894;SDS011;76432;45.642;13.758;2024-02-16T13:00:05;6.88;;;6.20;;
81894;SDS011;76432;45.642;13.758;2024-02-16T13:02:50;7.00;;;6.35;;
81894;SDS011;76432;45.642;13.758;2024-02-16T13:05:34;6.22;;;5.72;;
81894;SDS011;76432;45.642;13.758;2024-02-16T13:08:19;10.80;;;5.97;;
81894;SDS011;76432;45.642;13.758;2024-02-16T13:11:03;6.10;;;5.60;;
81894;SDS011;76432;45.642;13.758;2024-02-16T13:13:48;6.03;;;5.30;;
81894;SDS011;76432;45.642;13.758;2024-02-16T13:16:33;6.30;;;5.80;;
81894;SDS011;76432;45.642;13.758;2024-02-16T13:19:17;6.20;;;5.60;;
81894;SDS011;76432;45.642;13.758;2024-02-16T13:22:02;5.90;;;5.25;;
81894;SDS011;76432;45.642;13.758;2024-02-16T13:24:47;5.88;;;5.40;;
81894;SDS011;76432;45.642;13.758;2024-02-16T13:27:32;5.55;;;5.13;;
81894;SDS011;76432;45.642;13.758;2024-02-16T13:30:18;5.45;;;4.95;;
81894;SDS011;76432;45.642;13.758;2024-02-16T13:33:02;5.80;;;5.18;;
81894;SDS011;76432;45.642;13.758;2024-02-16T13:35:46;5.32;;;4.88;;
81894;SDS011;76432;45.642;13.758;2024-02-16T13:38:31;5.80;;;5.22;;
81894;SDS011;76432;45.642;13.758;2024-02-16T13:41:16;5.50;;;5.00;;
81894;SDS011;76432;45.642;13.758;2024-02-16T19:59:50;14.05;;;11.00;;
81894;SDS011;76432;45.642;13.758;2024-02-16T20:02:35;12.40;;;11.10;;
81894;SDS011;76432;45.642;13.758;2024-02-16T20:05:25;13.45;;;12.05;;
81894;SDS011;76432;45.642;13.758;2024-02-16T20:08:11;12.75;;;11.13;;
81894;SDS011;76432;45.642;13.758;2024-02-16T20:10:56;13.95;;;11.20;;
81894;SDS011;76432;45.642;13.758;2024-02-16T20:13:40;15.50;;;12.55;;
81894;SDS011;76432;45.642;13.758;2024-02-16T20:16:33;15.50;;;12.65;;
81894;SDS011;76432;45.642;13.758;2024-02-16T20:19:21;14.30;;;11.77;;
81894;SDS011;76432;45.642;13.758;2024-02-16T20:22:06;18.98;;;13.27;;
81894;SDS011;76432;45.642;13.758;2024-02-16T20:24:50;17.50;;;12.82;;
81894;SDS011;76432;45.642;13.758;2024-02-16T20:27:35;17.92;;;12.32;;
81894;SDS011;76432;45.642;13.758;2024-02-16T20:30:20;18.40;;;13.70;;
81894;SDS011;76432;45.642;13.758;2024-02-16T20:33:04;13.95;;;11.25;;
81894;SDS011;76432;45.642;13.758;2024-02-16T20:35:50;17.30;;;13.13;;
81894;SDS011;76432;45.642;13.758;2024-02-16T20:38:34;22.05;;;16.17;;
81894;SDS011;76432;45.642;13.758;2024-02-16T20:41:23;17.77;;;14.07;;
81894;SDS011;76432;45.642;13.758;2024-02-16T20:44:11;24.98;;;17.83;;
81894;SDS011;76432;45.642;13.758;2024-02-16T20:46:56;19.95;;;14.30;;
81894;SDS011;76432;45.642;13.758;2024-02-16T20:49:40;16.73;;;12.60;;
81894;SDS011;76432;45.642;13.758;2024-02-16T20:52:27;18.48;;;13.18;;
81894;SDS011;76432;45.642;13.758;2024-02-16T20:55:12;22.20;;;14.98;;
81894;SDS011;76432;45.642;13.758;2024-02-16T20:57:56;19.45;;;14.15;;
81894;SDS011;76432;45.642;13.758;2024-02-16T21:00:41;14.32;;;10.50;;
81894;SDS011;76432;45.642;13.758;2024-02-16T21:03:28;21.08;;;13.23;;
81894;SDS011;76432;45.642;13.758;2024-02-16T21:06:12;20.30;;;15.30;;
81894;SDS011;76432;45.642;13.758;2024-02-16T21:08:57;19.13;;;13.80;;
81894;SDS011;76432;45.642;13.758;2024-02-16T21:11:41;20.58;;;14.73;;
81894;SDS011;76432;45.642;13.758;2024-02-16T21:14:26;19.05;;;13.68;;
81894;SDS011;76432;45.642;13.758;2024-02-16T21:17:11;22.15;;;14.75;;
81894;SDS011;76432;45.642;13.758;2024-02-16T21:19:56;18.67;;;13.55;;
81894;SDS011;76432;45.642;13.758;2024-02-16T21:22:40;23.27;;;14.98;;
81894;SDS011;76432;45.642;13.758;2024-02-16T21:25:25;19.83;;;14.98;;
81894;SDS011;76432;45.642;13.758;2024-02-16T21:28:09;24.67;;;14.63;;
81894;SDS011;76432;45.642;13.758;2024-02-16T21:30:56;18.75;;;13.55;;
81894;SDS011;76432;45.642;13.758;2024-02-16T21:33:41;19.40;;;13.27;;
81894;SDS011;76432;45.642;13.758;2024-02-16T21:36:25;13.75;;;10.07;;
81894;SDS011;76432;45.642;13.758;2024-02-16T21:39:10;14.90;;;10.68;;
81894;SDS011;76432;45.642;13.758;2024-02-16T21:41:55;16.25;;;12.30;;
81894;SDS011;76432;45.642;13.758;2024-02-16T21:44:43;12.52;;;10.05;;
81894;SDS011;76432;45.642;13.758;2024-02-16T21:47:27;17.15;;;11.95;;
81894;SDS011;76432;45.642;13.758;2024-02-16T21:50:12;17.98;;;13.05;;
81894;SDS011;76432;45.642;13.758;2024-02-16T21:52:58;12.77;;;9.75;;
81894;SDS011;76432;45.642;13.758;2024-02-16T21:55:42;14.88;;;10.93;;
81894;SDS011;76432;45.642;13.758;2024-02-16T21:58:27;11.93;;;9.60;;
81894;SDS011;76432;45.642;13.758;2024-02-16T22:01:11;10.13;;;8.55;;
81894;SDS011;76432;45.642;13.758;2024-02-16T22:03:56;10.75;;;9.15;;
81894;SDS011;76432;45.642;13.758;2024-02-16T22:06:40;9.35;;;8.38;;
81894;SDS011;76432;45.642;13.758;2024-02-16T22:09:25;11.15;;;8.63;;
81894;SDS011;76432;45.642;13.758;2024-02-16T22:12:10;10.80;;;8.32;;
81894;SDS011;76432;45.642;13.758;2024-02-16T22:14:54;10.63;;;8.98;;
81894;SDS011;76432;45.642;13.758;2024-02-16T22:17:39;10.55;;;9.13;;
81894;SDS011;76432;45.642;13.758;2024-02-16T22:20:23;11.20;;;8.85;;
81894;SDS011;76432;45.642;13.758;2024-02-16T22:23:08;8.55;;;7.68;;
81894;SDS011;76432;45.642;13.758;2024-02-16T22:25:53;11.90;;;9.55;;